ADDS METAR Data INFO
IDs: Format: Raw Decoded Include TAF

Data at: 0932 UTC 11 Dec 2017

KDRM 110915Z AUTO 00000KT 10SM OVC030 M15/M18 A3000 RMK AO2 T11481180
KDRM 110855Z AUTO 04003KT 10SM BKN030 M14/M18 A3001 RMK AO2 T11431177
KDRM 110835Z AUTO 00000KT 10SM SCT030 M14/M18 A3001 RMK AO2 T11421177
KDRM 110815Z AUTO 00000KT 10SM -SN BKN032 M14/M17 A3001 RMK AO2 T11381173
KDRM 110755Z AUTO 00000KT 10SM OVC032 M13/M17 A3001 RMK AO2 T11331168
KDRM 110735Z AUTO 04004KT 10SM SCT015 OVC032 M13/M17 A3002 RMK AO2 T11301166
KDRM 110715Z AUTO 03003KT 10SM BKN015 OVC034 M13/M17 A3002 RMK AO2 T11301166
KDRM 110655Z AUTO 02003KT 10SM SCT015 BKN034 M13/M17 A3002 RMK AO2 T11331170
KDRM 110635Z AUTO 01003KT 10SM SCT024 M13/M17 A3000 RMK AO2 T11351168
KDRM 110615Z AUTO 04003KT 10SM SCT013 BKN024 OVC032 M13/M16 A3000 RMK AO2 T11271160
KDRM 110555Z AUTO 00000KT 10SM SCT013 SCT024 OVC032 M12/M16 A3000 RMK AO2 T11211159 11105 21121 410381121
KDRM 110535Z AUTO 34003KT 10SM OVC030 M12/M16 A3000 RMK AO2 T11171162
KDRM 110515Z AUTO 00000KT 10SM SCT015 OVC028 M11/M15 A3000 RMK AO2 T11151155
KDRM 110455Z AUTO 00000KT 10SM SCT015 OVC028 M12/M16 A3000 RMK AO2 T11191157
KDRM 110435Z AUTO 00000KT 10SM SCT015 SCT022 OVC028 M12/M16 A2999 RMK AO2 T11201157
KDRM 110415Z AUTO 35003KT 10SM SCT017 OVC030 M12/M15 A2999 RMK AO2 T11171152
KDRM 110355Z AUTO 00000KT 10SM SCT017 OVC030 M12/M16 A3000 RMK AO2 T11161156
KDRM 110335Z AUTO 36005KT 10SM OVC030 M12/M16 A2999 RMK AO2 T11171160
KDRM 110315Z AUTO 02005KT 10SM OVC032 M12/M16 A2998 RMK AO2 T11161164
KDRM 110255Z AUTO 01005KT 10SM OVC032 M11/M16 A2997 RMK AO2 T11151161
KDRM 110235Z AUTO 36006KT 10SM OVC032 M11/M16 A2997 RMK AO2 T11111158
KDRM 110215Z AUTO 36005KT 10SM SCT030 M11/M16 A2997 RMK AO2 T11111160
KDRM 110155Z AUTO 36008KT 10SM CLR M11/M16 A2997 RMK AO2 T11091157
KDRM 110135Z AUTO 36007KT 10SM CLR M10/M16 A2997 RMK AO2 T11051157
KDRM 110115Z AUTO 36008KT 10SM CLR M11/M16 A2996 RMK AO2 T11071160
KDRM 110055Z AUTO 35006KT 10SM CLR M11/M17 A2996 RMK AO2 T11111168
KDRM 110035Z AUTO 34006KT 10SM CLR M11/M17 A2995 RMK AO2 T11101166
KDRM 110015Z AUTO 32007KT 10SM CLR M11/M16 A2995 RMK AO2 T11061165
KDRM 102355Z AUTO 34007KT 10SM CLR M10/M16 A2993 RMK AO2 T11051159 11049 21105
KDRM 102335Z AUTO 34006G14KT 10SM SCT027 M10/M15 A2992 RMK AO2 T11001153
KDRM 102315Z AUTO 35008G14KT 10SM OVC027 M09/M15 A2990 RMK AO2 T10931147
KDRM 102255Z AUTO 31006KT 10SM OVC027 M09/M15 A2989 RMK AO2 T10871146
KDRM 102235Z AUTO 34006KT 10SM OVC027 M08/M14 A2988 RMK AO2 T10831143
KDRM 102215Z AUTO 31010G16KT 10SM OVC027 M08/M14 A2987 RMK AO2 T10821143
KDRM 102155Z AUTO 32011G20KT 280V010 10SM OVC027 M08/M13 A2985 RMK AO2 T10761135
KDRM 102135Z AUTO 32007G18KT 10SM OVC025 M07/M13 A2984 RMK AO2 T10721128
KDRM 102115Z AUTO 32009G20KT 290V350 10SM BKN025 BKN031 M07/M12 A2982 RMK AO2 T10701125
KDRM 102055Z AUTO 31010G16KT 270V340 10SM BKN023 BKN027 OVC036 M06/M12 A2982 RMK AO2 T10631116
KDRM 102035Z AUTO 32008KT 290V360 10SM SCT023 BKN030 OVC035 M06/M11 A2980 RMK AO2 T10611115
KDRM 102015Z AUTO 31007G15KT 10SM SCT023 OVC031 M06/M12 A2980 RMK AO2 T10591116
KDRM 101955Z AUTO 29008G14KT 260V320 10SM BKN027 BKN032 OVC038 M06/M12 A2979 RMK AO2 T10591121
KDRM 101935Z AUTO 31008G17KT 280V340 10SM OVC029 M06/M12 A2978 RMK AO2 T10571120
KDRM 101915Z AUTO 33006KT 10SM BKN029 BKN038 M06/M12 A2978 RMK AO2 T10561123
KDRM 101855Z AUTO 33005KT 10SM SCT027 SCT055 M06/M12 A2977 RMK AO2 T10561125
KDRM 101835Z AUTO 33005KT 10SM CLR M05/M12 A2977 RMK AO2 T10551124
KDRM 101815Z AUTO 32010KT 10SM SCT050 M05/M12 A2976 RMK AO2 T10491121
KDRM 101755Z AUTO 34006KT 10SM BKN050 M05/M11 A2975 RMK AO2 T10511115 11038 21053
KDRM 101735Z AUTO 34006KT 10SM OVC055 M05/M11 A2974 RMK AO2 T10501113
KDRM 101715Z AUTO 33005KT 10SM SCT019 OVC055 M05/M11 A2974 RMK AO2 T10531109
KDRM 101655Z AUTO 35005KT 10SM SCT013 OVC019 M05/M10 A2974 RMK AO2 T10501098
KDRM 101635Z AUTO 33004KT 10SM OVC014 M05/M09 A2974 RMK AO2 T10511087
KDRM 101615Z AUTO 31007KT 290V350 10SM OVC014 M05/M09 A2974 RMK AO2 T10511086
KDRM 101555Z AUTO 32009G14KT 10SM BKN016 BKN022 OVC065 M05/M09 A2973 RMK AO2 T10461088
KDRM 101535Z AUTO 31007KT 10SM BKN018 BKN036 OVC065 M04/M08 A2973 RMK AO2 T10411084
KDRM 101515Z AUTO 28007G14KT 3SM -SN BKN020 OVC026 M04/M08 A2973 RMK AO2 T10401079
KDRM 101455Z AUTO 27006KT 10SM -SN BKN024 BKN036 OVC050 M04/M09 A2972 RMK AO2 T10381087
KDRM 101435Z AUTO 25006KT 10SM SCT031 BKN044 OVC055 M04/M09 A2971 RMK AO2 T10401092
KDRM 101415Z AUTO 25006G15KT 10SM SCT029 SCT039 OVC065 M04/M10 A2971 RMK AO2 T10421096
KDRM 101355Z AUTO 25006KT 10SM OVC065 M04/M10 A2971 RMK AO2 T10451100
KDRM 101335Z AUTO 25005KT 10SM BKN075 OVC090 M05/M10 A2971 RMK AO2 T10471100
KDRM 101315Z AUTO 26005KT 10SM SCT042 BKN075 OVC090 M05/M10 A2972 RMK AO2 T10491099
KDRM 101255Z AUTO 26004KT 10SM SCT055 OVC070 M05/M10 A2972 RMK AO2 T10501099
KDRM 101235Z AUTO 25006KT 10SM OVC070 M05/M10 A2972 RMK AO2 T10511096
KDRM 101215Z AUTO 26007KT 230V300 10SM BKN080 OVC085 M05/M09 A2972 RMK AO2 T10521090
KDRM 101155Z AUTO 26005KT 10SM SCT075 OVC090 M05/M09 A2973 RMK AO2 T10511090 11048 21070
KDRM 101136Z AUTO 26006KT 10SM OVC090 M05/M09 A2973 RMK AO2 T10511093
KDRM 101115Z AUTO 27006KT 10SM OVC090 M05/M09 A2973 RMK AO2 T10501095
KDRM 101055Z AUTO 27008KT 240V300 10SM OVC090 M05/M10 A2973 RMK AO2 T10501100
KDRM 101035Z AUTO 25007G14KT 10SM OVC100 M05/M09 A2973 RMK AO2 T10501095
KDRM 101015Z AUTO 27007KT 240V300 10SM OVC100 M05/M08 A2973 RMK AO2 T10501085
KDRM 100955Z AUTO 26008KT 10SM OVC100 M05/M09 A2973 RMK AO2 T10501090
KDRM 100936Z AUTO 27006KT 10SM OVC110 M05/M09 A2974 RMK AO2 T10511090
KDRM 100915Z AUTO 26008KT 10SM SCT060 SCT075 OVC120 M05/M09 A2974 RMK AO2 T10511090
KDRM 100855Z AUTO 27006KT 10SM BKN065 BKN080 OVC100 M05/M09 A2975 RMK AO2 T10551092
KDRM 100836Z AUTO 25004KT 10SM SCT060 BKN070 BKN090 M05/M09 A2976 RMK AO2 T10551093
KDRM 100815Z AUTO 26005KT 10SM SCT047 BKN060 OVC080 M06/M10 A2977 RMK AO2 T10571098
KDRM 100755Z AUTO 26005KT 10SM SCT046 BKN065 OVC070 M06/M10 A2977 RMK AO2 T10571099
KDRM 100735Z AUTO 26005KT 10SM SCT055 SCT065 OVC080 M06/M10 A2978 RMK AO2 T10581100
KDRM 100715Z AUTO 27005KT 10SM SCT060 OVC070 M06/M10 A2978 RMK AO2 T10601100
KDRM 100655Z AUTO 28004KT 10SM SCT032 BKN065 OVC080 M06/M10 A2979 RMK AO2 T10611100
KDRM 100635Z AUTO 27004KT 10SM SCT022 BKN029 OVC044 M06/M10 A2980 RMK AO2 T10651100
KDRM 100615Z AUTO 28003KT 7SM SCT017 BKN029 OVC042 M07/M10 A2980 RMK AO2 T10681100
KDRM 100555Z AUTO 00000KT 5SM -SN BKN015 BKN020 OVC035 M07/M11 A2981 RMK AO2 T10701106 11049 21070 410451076
KDRM 100535Z AUTO 25005KT 7SM -SN BKN015 BKN022 OVC035 M07/M11 A2982 RMK AO2 T10701106
KDRM 100515Z AUTO 25003KT 10SM -SN BKN017 OVC022 M07/M10 A2983 RMK AO2 T10681103
KDRM 100455Z AUTO 00000KT 5SM -SN BKN019 OVC025 M07/M10 A2984 RMK AO2 T10691104
KDRM 100435Z AUTO 26004KT 10SM BKN025 OVC030 M06/M12 A2984 RMK AO2 T10651117
KDRM 100415Z AUTO 00000KT 10SM BKN025 OVC033 M06/M11 A2984 RMK AO2 T10651115
KDRM 100355Z AUTO 33003KT 10SM BKN025 OVC035 M07/M12 A2984 RMK AO2 T10661120
KDRM 100335Z AUTO 31004KT 10SM BKN027 OVC035 M06/M12 A2984 RMK AO2 T10641119
KDRM 100315Z AUTO 30004KT 10SM SCT021 BKN029 OVC035 M06/M11 A2985 RMK AO2 T10651108
KDRM 100255Z AUTO 30005KT 10SM SCT017 BKN030 OVC034 M06/M10 A2985 RMK AO2 T10651105
KDRM 100235Z AUTO 30006KT 10SM SCT015 SCT021 OVC030 M06/M10 A2985 RMK AO2 T10651102
KDRM 100215Z AUTO 28004KT 10SM -SN SCT015 BKN020 OVC028 M06/M10 A2985 RMK AO2 T10651099
KDRM 100155Z AUTO 30007KT 10SM -SN BKN017 BKN024 OVC037 M06/M10 A2985 RMK AO2 T10631098
KDRM 100135Z AUTO 29008KT 250V330 10SM SCT015 BKN031 OVC037 M06/M10 A2985 RMK AO2 T10621100
KDRM 100115Z AUTO 29006KT 10SM SCT017 SCT021 OVC032 M06/M10 A2985 RMK AO2 T10601100
KDRM 100055Z AUTO 29008KT 270V340 10SM SCT017 OVC029 M06/M10 A2985 RMK AO2 T10571096
KDRM 100035Z AUTO 28008KT 10SM -SN SCT017 OVC027 M05/M09 A2985 RMK AO2 T10551091
KDRM 100015Z AUTO 28006KT 260V320 10SM SCT015 BKN022 OVC027 M05/M09 A2985 RMK AO2 T10511090
KDRM 092355Z AUTO 29006KT 10SM -SN BKN014 BKN021 OVC027 M05/M08 A2985 RMK AO2 T10471082 11045 21060
KDRM 092335Z AUTO 32005KT 7SM -SN BKN016 OVC022 M05/M08 A2985 RMK AO2 T10461082
KDRM 092315Z AUTO 31005KT 10SM BKN019 OVC026 M04/M08 A2984 RMK AO2 T10451083
KDRM 092255Z AUTO 32006KT 10SM OVC019 M04/M08 A2984 RMK AO2 T10451082
KDRM 092235Z AUTO 00000KT 10SM BKN019 BKN028 OVC038 M04/M08 A2984 RMK AO2 T10451081
KDRM 092215Z AUTO 30003KT 10SM SCT019 BKN028 OVC036 M05/M08 A2984 RMK AO2 T10461085
KDRM 092155Z AUTO 30004KT 10SM OVC019 M05/M08 A2983 RMK AO2 T10461085
KDRM 092135Z AUTO 32003KT 10SM BKN019 OVC047 M05/M09 A2983 RMK AO2 T10501089